Time;durP1;ratioP1;P1;durP2;ratioP2;P2;SDS_P1;SDS_P2;PMS_P1;PMS_P2;Temp;Humidity;BMP_temperature;BMP_pressure;BME280_temperature;BME280_humidity;BME280_pressure;Samples;Min_cycle;Max_cycle;Signal;HPM_P1;HPM_P2
2022/06/08 00:02:39;;;;;;;0.75;0.40;;;;;;;17.03;100.00;97901.22;15298008;19;20011;-81
2022/06/08 00:07:44;;;;;;;1.02;0.35;;;;;;;16.99;100.00;97910.91;15303937;19;20041;-83
2022/06/08 00:12:49;;;;;;;0.90;0.38;;;;;;;16.99;100.00;97905.44;15298848;19;20404;-85
2022/06/08 00:17:59;;;;;;;0.63;0.30;;;;;;;16.91;100.00;97899.16;15300925;19;20375;-85
2022/06/08 00:23:04;;;;;;;0.75;0.35;;;;;;;16.88;100.00;97898.75;15315688;19;20010;-85
2022/06/08 00:28:09;;;;;;;0.52;0.40;;;;;;;16.84;100.00;97892.06;15314042;19;20018;-82
2022/06/08 00:33:18;;;;;;;1.30;0.40;;;;;;;16.83;100.00;97896.69;15317607;19;20014;-83
2022/06/08 00:38:26;;;;;;;0.80;0.30;;;;;;;16.84;100.00;97897.50;15318867;19;20022;-87
2022/06/08 00:43:34;;;;;;;0.28;0.25;;;;;;;16.83;100.00;97888.50;15313961;19;20471;-82
2022/06/08 00:48:50;;;;;;;0.80;0.40;;;;;;;16.82;100.00;97878.69;15325774;19;20006;-89
2022/06/08 00:53:58;;;;;;;0.90;0.45;;;;;;;16.82;100.00;97875.97;15319581;19;20018;-82
2022/06/08 00:59:06;;;;;;;0.65;0.30;;;;;;;16.84;100.00;97871.16;15319228;19;20028;-81
2022/06/08 01:04:21;;;;;;;0.52;0.30;;;;;;;16.83;100.00;97861.31;15314514;19;20015;-82
2022/06/08 01:09:33;;;;;;;1.05;0.40;;;;;;;16.78;100.00;97867.41;15311730;19;20003;-81
2022/06/08 01:14:40;;;;;;;0.35;0.30;;;;;;;16.76;100.00;97858.63;14797727;19;9999984;-80
2022/06/08 01:19:52;;;;;;;1.08;0.50;;;;;;;16.76;100.00;97852.31;15307277;19;20029;-84
2022/06/08 01:25:03;;;;;;;1.20;0.38;;;;;;;16.67;100.00;97854.47;15296857;19;20014;-80
2022/06/08 01:30:31;;;;;;;1.80;0.50;;;;;;;16.67;100.00;97861.78;15300395;19;20010;-84
2022/06/08 01:35:45;;;;;;;0.35;0.30;;;;;;;16.61;100.00;97850.72;15302400;19;20348;-83
2022/06/08 01:41:22;;;;;;;0.93;0.30;;;;;;;16.58;100.00;97839.44;15301354;19;20015;-83
2022/06/08 01:46:37;;;;;;;1.13;0.43;;;;;;;16.41;100.00;97833.63;15302409;19;20832;-82
2022/06/08 01:51:52;;;;;;;2.92;0.45;;;;;;;16.32;100.00;97824.88;15297789;19;20015;-83
2022/06/08 01:57:12;;;;;;;0.65;0.40;;;;;;;16.21;100.00;97820.09;15299957;19;20018;-83
2022/06/08 02:02:27;;;;;;;0.90;0.50;;;;;;;16.07;100.00;97824.69;15301163;19;20038;-81
2022/06/08 02:07:41;;;;;;;0.65;0.35;;;;;;;15.90;100.00;97832.47;15321239;19;20018;-80
2022/06/08 02:12:54;;;;;;;1.90;0.40;;;;;;;15.78;100.00;97816.75;15326860;19;20014;-82
2022/06/08 02:18:06;;;;;;;2.65;0.50;;;;;;;15.69;100.00;97820.75;15296215;19;20035;-84
2022/06/08 02:23:21;;;;;;;0.57;0.43;;;;;;;15.53;100.00;97814.69;15294342;19;20705;-84
2022/06/08 02:28:36;;;;;;;1.48;0.50;;;;;;;15.28;100.00;97817.16;15300133;19;20793;-84
2022/06/08 02:39:10;;;;;;;0.60;0.50;;;;;;;15.23;100.00;97823.22;15288209;19;20014;-83
2022/06/08 02:44:23;;;;;;;0.60;0.40;;;;;;;15.09;100.00;97816.94;15279892;19;20014;-61
2022/06/08 02:49:28;;;;;;;0.38;0.30;;;;;;;15.12;100.00;97821.13;15281696;19;20039;-62
2022/06/08 02:54:34;;;;;;;1.00;0.40;;;;;;;15.13;100.00;97809.22;15276659;19;20138;-62
2022/06/08 02:59:52;;;;;;;0.90;0.40;;;;;;;15.14;100.00;97802.75;15277429;19;20035;-62
2022/06/08 03:05:08;;;;;;;0.90;0.43;;;;;;;15.11;100.00;97800.44;15279009;19;20022;-62
2022/06/08 03:10:17;;;;;;;0.88;0.50;;;;;;;15.10;100.00;97807.75;15278494;19;20428;-63
2022/06/08 03:15:27;;;;;;;1.05;0.30;;;;;;;15.10;100.00;97812.34;15278498;19;20018;-61
2022/06/08 03:20:35;;;;;;;0.75;0.50;;;;;;;15.07;100.00;97810.88;15277283;19;20026;-62
2022/06/08 03:25:41;;;;;;;0.75;0.45;;;;;;;15.05;100.00;97814.84;15279745;19;20020;-62
2022/06/08 03:30:49;;;;;;;0.47;0.40;;;;;;;15.00;100.00;97815.44;15267490;19;20022;-62
2022/06/08 03:35:55;;;;;;;0.57;0.40;;;;;;;14.99;100.00;97823.78;15263271;19;21678;-59
2022/06/08 03:41:02;;;;;;;0.65;0.30;;;;;;;14.99;100.00;97821.94;15277460;19;20078;-57
2022/06/08 03:46:12;;;;;;;0.55;0.40;;;;;;;14.91;100.00;97822.94;15274963;19;20685;-58
2022/06/08 03:51:19;;;;;;;3.90;0.50;;;;;;;14.89;100.00;97829.59;15280982;19;20011;-59
2022/06/08 03:56:26;;;;;;;0.60;0.30;;;;;;;14.88;100.00;97827.91;15288192;19;20014;-59
2022/06/08 04:01:35;;;;;;;0.38;0.30;;;;;;;14.90;100.00;97833.97;15288503;19;20010;-59
2022/06/08 04:06:40;;;;;;;1.77;0.50;;;;;;;14.89;100.00;97835.03;15283124;19;20022;-59
2022/06/08 04:11:47;;;;;;;0.70;0.50;;;;;;;14.92;100.00;97824.63;15288797;19;20022;-55
2022/06/08 04:16:56;;;;;;;0.82;0.50;;;;;;;14.99;100.00;97838.22;15281825;19;20018;-56
2022/06/08 04:22:01;;;;;;;0.60;0.30;;;;;;;15.04;100.00;97843.84;15292111;19;20090;-57
2022/06/08 04:27:08;;;;;;;1.00;0.50;;;;;;;15.12;100.00;97836.53;15288946;19;20581;-58
2022/06/08 04:32:22;;;;;;;0.88;0.40;;;;;;;15.21;100.00;97846.19;15281778;19;20014;-59
2022/06/08 04:37:27;;;;;;;0.55;0.40;;;;;;;15.27;100.00;97845.34;15281442;19;20499;-59
2022/06/08 04:42:32;;;;;;;0.40;0.40;;;;;;;15.32;100.00;97848.28;15289145;19;20018;-59
2022/06/08 04:47:40;;;;;;;0.95;0.40;;;;;;;15.36;100.00;97852.25;15291217;19;20344;-60
2022/06/08 04:52:48;;;;;;;0.80;0.40;;;;;;;15.44;100.00;97855.81;15286762;19;20026;-58
2022/06/08 04:57:54;;;;;;;0.75;0.50;;;;;;;15.49;100.00;97853.31;15290297;19;20081;-55
2022/06/08 05:03:02;;;;;;;0.63;0.40;;;;;;;15.54;100.00;97853.53;15284691;19;20016;-59
2022/06/08 05:08:20;;;;;;;0.70;0.47;;;;;;;15.63;100.00;97859.59;15286176;19;20025;-60
2022/06/08 05:13:27;;;;;;;1.27;0.40;;;;;;;15.75;100.00;97857.94;15288671;19;20329;-59
2022/06/08 05:18:41;;;;;;;0.90;0.40;;;;;;;15.87;100.00;97855.44;15288895;19;20345;-59
2022/06/08 05:23:53;;;;;;;0.65;0.45;;;;;;;15.99;100.00;97852.97;15289456;19;20017;-57
2022/06/08 05:29:18;;;;;;;0.70;0.40;;;;;;;16.13;100.00;97854.59;15290228;19;20049;-59
2022/06/08 05:34:31;;;;;;;0.93;0.50;;;;;;;16.25;100.00;97835.75;15285135;19;20415;-59
2022/06/08 05:39:37;;;;;;;1.35;0.50;;;;;;;16.33;100.00;97837.44;15278457;19;20462;-57
2022/06/08 05:44:42;;;;;;;0.65;0.52;;;;;;;16.49;100.00;97828.78;15285161;19;20053;-59
2022/06/08 05:49:50;;;;;;;0.55;0.35;;;;;;;16.60;100.00;97830.03;15287287;19;20797;-58
2022/06/08 05:54:56;;;;;;;0.40;0.40;;;;;;;16.68;100.00;97839.81;15282997;19;20042;-59
2022/06/08 06:00:01;;;;;;;3.88;0.43;;;;;;;16.76;100.00;97846.88;15286939;19;20018;-58
2022/06/08 06:05:11;;;;;;;0.95;0.50;;;;;;;16.96;100.00;97846.00;15286969;19;20099;-60
2022/06/08 06:10:19;;;;;;;0.88;0.45;;;;;;;17.12;100.00;97840.06;15278974;19;20010;-60
2022/06/08 06:15:26;;;;;;;2.40;0.50;;;;;;;17.27;100.00;97841.66;15276101;19;20018;-60
2022/06/08 06:20:36;;;;;;;0.55;0.32;;;;;;;17.47;100.00;97844.25;15284830;19;20015;-58
2022/06/08 06:25:55;;;;;;;0.30;0.30;;;;;;;17.54;100.00;97847.75;15282842;19;20015;-59
2022/06/08 06:31:07;;;;;;;1.53;0.40;;;;;;;17.65;100.00;97838.03;15283670;19;20023;-58
2022/06/08 06:36:34;;;;;;;1.23;0.35;;;;;;;17.65;100.00;97838.03;15280938;19;20018;-56
2022/06/08 06:41:42;;;;;;;0.77;0.30;;;;;;;17.75;100.00;97841.09;15277437;19;20347;-60
2022/06/08 06:46:47;;;;;;;2.20;0.60;;;;;;;17.89;100.00;97844.53;15275932;19;20039;-58
2022/06/08 06:52:04;;;;;;;1.17;0.50;;;;;;;18.01;100.00;97847.41;15283262;19;20043;-55
2022/06/08 06:57:09;;;;;;;1.52;0.50;;;;;;;18.02;100.00;97839.00;15281714;19;20029;-55
2022/06/08 07:02:16;;;;;;;1.83;0.45;;;;;;;18.17;100.00;97837.81;15281357;19;20025;-52
2022/06/08 07:07:26;;;;;;;1.52;0.50;;;;;;;18.29;100.00;97837.91;15279806;19;20022;-55
2022/06/08 07:12:32;;;;;;;2.05;0.60;;;;;;;18.20;100.00;97840.09;15275130;19;20028;-56
2022/06/08 07:17:37;;;;;;;1.17;0.50;;;;;;;18.39;100.00;97837.38;15275662;19;20118;-54
2022/06/08 07:22:44;;;;;;;0.73;0.47;;;;;;;18.53;100.00;97841.63;15279750;19;20026;-58
2022/06/08 07:27:50;;;;;;;1.20;0.50;;;;;;;18.58;100.00;97830.03;15279670;19;20014;-55
2022/06/08 07:32:54;;;;;;;0.88;0.40;;;;;;;18.67;100.00;97817.75;15257478;19;20025;-57
2022/06/08 07:38:02;;;;;;;0.40;0.35;;;;;;;18.73;100.00;97813.28;15277628;19;20018;-57
2022/06/08 07:43:07;;;;;;;0.70;0.38;;;;;;;18.74;100.00;97801.31;15280559;19;20034;-57
2022/06/08 07:53:34;;;;;;;1.25;0.47;;;;;;;19.09;100.00;97781.53;15278355;19;20018;-55
2022/06/08 07:58:39;;;;;;;1.02;0.40;;;;;;;19.29;100.00;97767.59;15276212;19;20087;-56
2022/06/08 08:03:45;;;;;;;0.52;0.30;;;;;;;19.50;100.00;97770.84;15278815;19;20010;-59
2022/06/08 08:08:53;;;;;;;0.65;0.40;;;;;;;19.63;100.00;97765.16;15279214;19;20034;-57
2022/06/08 08:13:57;;;;;;;2.13;0.32;;;;;;;19.75;100.00;97756.13;15277903;19;20022;-54
2022/06/08 08:19:03;;;;;;;1.67;0.40;;;;;;;19.83;100.00;97751.16;15266839;19;20019;-59
2022/06/08 08:24:11;;;;;;;0.52;0.30;;;;;;;19.98;100.00;97761.63;15270431;19;20015;-59
2022/06/08 08:29:17;;;;;;;0.30;0.30;;;;;;;20.02;100.00;97760.09;15275910;19;20014;-59
2022/06/08 08:34:22;;;;;;;1.70;0.47;;;;;;;20.20;100.00;97746.50;15277255;19;20365;-58
2022/06/08 08:39:29;;;;;;;0.75;0.35;;;;;;;20.37;100.00;97746.59;15281601;19;20030;-59
2022/06/08 08:44:38;;;;;;;1.38;0.50;;;;;;;20.59;100.00;97744.03;15289810;19;20026;-58
2022/06/08 08:49:49;;;;;;;2.33;0.60;;;;;;;20.75;100.00;97742.47;15281080;19;20026;-59
2022/06/08 08:55:02;;;;;;;1.20;0.47;;;;;;;20.94;100.00;97727.50;15283315;19;20370;-58
2022/06/08 09:00:23;;;;;;;0.68;0.35;;;;;;;21.11;100.00;97728.59;15291417;19;20490;-61
2022/06/08 09:05:31;;;;;;;1.90;0.43;;;;;;;21.38;100.00;97720.56;15287570;19;20503;-57
2022/06/08 09:10:42;;;;;;;0.80;0.50;;;;;;;21.42;100.00;97718.16;15288436;19;20348;-57
2022/06/08 09:15:51;;;;;;;0.82;0.50;;;;;;;21.64;100.00;97721.00;15286161;19;20006;-62
2022/06/08 09:20:56;;;;;;;0.77;0.50;;;;;;;21.85;100.00;97709.25;15285477;19;20042;-60
2022/06/08 09:26:15;;;;;;;2.25;0.43;;;;;;;22.22;100.00;97707.84;15282118;19;20007;-61
2022/06/08 09:31:31;;;;;;;0.63;0.50;;;;;;;22.58;89.63;97700.03;15289484;19;20125;-58
2022/06/08 09:36:36;;;;;;;1.15;0.40;;;;;;;22.82;87.57;97691.50;15284498;19;20018;-59
2022/06/08 09:41:49;;;;;;;0.52;0.40;;;;;;;22.89;82.49;97672.06;15288303;19;20046;-59
2022/06/08 09:52:37;;;;;;;1.17;0.40;;;;;;;22.81;73.29;97672.56;15287411;19;20034;-60
2022/06/08 09:57:52;;;;;;;1.92;0.50;;;;;;;22.33;75.63;97673.09;15274640;19;20014;-59
2022/06/08 10:03:24;;;;;;;1.25;0.50;;;;;;;22.02;76.28;97664.50;15286684;19;20599;-60
2022/06/08 10:08:35;;;;;;;0.77;0.50;;;;;;;21.81;83.06;97656.03;15287809;19;20014;-57
2022/06/08 10:13:49;;;;;;;1.13;0.50;;;;;;;21.58;87.15;97650.72;15285909;19;22231;-57
2022/06/08 10:19:00;;;;;;;1.38;0.70;;;;;;;21.65;91.08;97645.91;15281781;19;20042;-56
2022/06/08 10:24:15;;;;;;;2.55;0.57;;;;;;;21.69;88.93;97636.94;15283890;19;20023;-58
2022/06/08 10:29:31;;;;;;;1.40;0.50;;;;;;;21.95;89.45;97625.47;15279514;19;20019;-58
2022/06/08 10:34:38;;;;;;;0.93;0.50;;;;;;;22.15;88.55;97628.47;15281388;19;20021;-59
2022/06/08 10:39:44;;;;;;;1.40;0.57;;;;;;;22.34;80.32;97625.38;15285546;19;20011;-58
2022/06/08 10:44:53;;;;;;;2.47;0.50;;;;;;;22.60;83.34;97607.28;15283483;19;20014;-59
2022/06/08 10:50:17;;;;;;;0.93;0.43;;;;;;;22.86;84.06;97607.53;15285377;19;20014;-58
2022/06/08 10:55:49;;;;;;;0.93;0.40;;;;;;;23.29;78.05;97599.38;15282816;19;20014;-60
2022/06/08 11:01:02;;;;;;;1.50;0.50;;;;;;;23.48;79.61;97593.44;15273806;19;20363;-58
2022/06/08 11:06:11;;;;;;;0.75;0.40;;;;;;;23.72;68.70;97601.25;15278357;19;20081;-59
2022/06/08 11:11:41;;;;;;;1.25;0.40;;;;;;;23.98;63.81;97583.81;15284070;19;20383;-56
2022/06/08 11:16:48;;;;;;;0.70;0.50;;;;;;;24.02;69.66;97586.03;15280911;19;20014;-59
2022/06/08 11:21:57;;;;;;;0.63;0.38;;;;;;;23.55;63.91;97572.03;15283102;19;20006;-60
2022/06/08 11:27:32;;;;;;;2.03;0.50;;;;;;;23.48;61.75;97579.69;15281715;19;20014;-56
2022/06/08 11:33:15;;;;;;;2.05;0.50;;;;;;;23.49;64.87;97570.34;15274418;19;20384;-57
2022/06/08 11:38:53;;;;;;;1.67;0.60;;;;;;;23.70;61.04;97568.53;15276312;19;20369;-57
2022/06/08 11:44:05;;;;;;;1.75;0.40;;;;;;;23.91;59.73;97568.63;15281288;19;20021;-59
2022/06/08 11:49:37;;;;;;;1.95;0.50;;;;;;;24.04;57.71;97565.41;15281366;19;20080;-60
2022/06/08 11:54:46;;;;;;;1.20;0.50;;;;;;;23.92;57.47;97557.38;15278468;19;20474;-57
2022/06/08 11:59:57;;;;;;;0.60;0.40;;;;;;;23.85;56.59;97565.00;15277468;19;20018;-58
2022/06/08 12:05:02;;;;;;;1.48;0.50;;;;;;;24.35;54.84;97559.94;15272802;19;20014;-56
2022/06/08 12:10:14;;;;;;;1.10;0.40;;;;;;;24.47;54.35;97549.50;15276696;19;20058;-58
2022/06/08 12:15:48;;;;;;;0.32;0.32;;;;;;;24.39;51.51;97546.50;15282435;19;21434;-53
2022/06/08 12:21:28;;;;;;;1.13;0.50;;;;;;;24.43;48.98;97542.06;15293126;19;20034;-58
2022/06/08 12:26:57;;;;;;;3.28;0.50;;;;;;;24.81;49.02;97541.88;15289235;19;20015;-58
2022/06/08 12:32:20;;;;;;;1.25;0.40;;;;;;;24.84;46.58;97544.91;15292984;19;20018;-58
2022/06/08 12:37:35;;;;;;;1.48;0.50;;;;;;;24.66;45.67;97534.38;15281927;19;20042;-55
2022/06/08 12:42:49;;;;;;;3.60;0.60;;;;;;;24.41;46.99;97528.59;15287846;19;20034;-59
2022/06/08 12:47:57;;;;;;;1.10;0.40;;;;;;;24.31;49.57;97529.41;15292894;19;20018;-53
2022/06/08 12:53:02;;;;;;;0.60;0.40;;;;;;;24.31;48.93;97528.59;15291589;19;20018;-57
2022/06/08 12:58:08;;;;;;;3.50;0.70;;;;;;;24.65;49.19;97516.19;15290193;19;20031;-57
2022/06/08 13:03:21;;;;;;;1.08;0.57;;;;;;;24.62;47.35;97514.84;15291544;19;20039;-58
2022/06/08 13:08:29;;;;;;;1.13;0.40;;;;;;;25.10;46.45;97517.31;15282647;19;20021;-58
2022/06/08 13:13:37;;;;;;;1.90;0.40;;;;;;;25.07;46.39;97502.16;15286565;19;20014;-58
2022/06/08 13:18:44;;;;;;;2.25;0.55;;;;;;;24.66;45.40;97490.31;15286573;19;20377;-59
2022/06/08 13:23:50;;;;;;;1.73;0.40;;;;;;;24.59;47.61;97496.94;15289905;19;20015;-59
2022/06/08 13:28:57;;;;;;;1.52;0.40;;;;;;;24.41;46.34;97494.72;15291200;19;20031;-59
2022/06/08 13:34:05;;;;;;;0.90;0.45;;;;;;;24.38;45.89;97489.78;15287448;19;20050;-57
2022/06/08 13:39:20;;;;;;;0.98;0.43;;;;;;;24.00;46.96;97484.50;15281053;19;20014;-56
2022/06/08 13:44:29;;;;;;;0.85;0.50;;;;;;;24.03;49.06;97483.13;15281375;19;20018;-60
2022/06/08 13:49:41;;;;;;;1.67;0.52;;;;;;;24.05;47.13;97484.50;15288172;19;20475;-58
2022/06/08 13:54:52;;;;;;;1.02;0.50;;;;;;;24.34;45.73;97488.69;15287212;19;20017;-57
2022/06/08 14:00:00;;;;;;;2.22;0.30;;;;;;;24.44;45.76;97478.50;15285508;19;20014;-59
2022/06/08 14:05:10;;;;;;;2.33;0.43;;;;;;;25.01;47.53;97474.88;15285946;19;20421;-60
2022/06/08 14:15:44;;;;;;;0.88;0.45;;;;;;;25.34;44.67;97467.91;15275630;19;21431;-61
2022/06/08 14:20:53;;;;;;;2.45;0.50;;;;;;;25.27;45.36;97455.53;15287835;19;20010;-59
2022/06/08 14:26:00;;;;;;;;;;;;;;;24.97;48.77;97454.53;15282664;19;20018;-59
2022/06/08 14:31:29;;;;;;;1.35;0.50;;;;;;;24.99;49.48;97452.31;15283923;19;20336;-58
2022/06/08 14:36:37;;;;;;;0.85;0.50;;;;;;;24.77;47.94;97442.41;15282313;19;20035;-59
2022/06/08 14:42:04;;;;;;;1.38;0.60;;;;;;;24.46;49.46;97439.69;15283655;19;20010;-59
2022/06/08 14:47:16;;;;;;;1.00;0.50;;;;;;;24.30;48.91;97436.91;15277266;19;20027;-57
2022/06/08 14:52:26;;;;;;;1.02;0.40;;;;;;;24.55;49.52;97439.94;15281506;19;20014;-60
2022/06/08 14:57:34;;;;;;;0.60;0.47;;;;;;;24.35;48.48;97433.34;15283109;19;20398;-58
2022/06/08 15:02:39;;;;;;;1.60;0.50;;;;;;;24.31;47.29;97430.31;15281337;19;20022;-60
2022/06/08 15:07:47;;;;;;;2.72;0.43;;;;;;;24.47;46.89;97427.56;15284983;19;20073;-55
2022/06/08 15:12:54;;;;;;;1.58;0.60;;;;;;;24.27;49.11;97417.38;15283790;19;20094;-60
2022/06/08 15:18:01;;;;;;;1.00;0.40;;;;;;;24.11;49.80;97420.13;15276652;19;20573;-59
2022/06/08 15:23:11;;;;;;;2.70;0.60;;;;;;;23.79;49.94;97417.59;15276305;19;20479;-58
2022/06/08 15:28:18;;;;;;;1.70;0.50;;;;;;;23.73;50.03;97408.50;15283367;19;20049;-60
2022/06/08 15:33:27;;;;;;;2.17;0.50;;;;;;;23.70;50.57;97409.88;15280291;19;20043;-60
2022/06/08 15:38:39;;;;;;;0.63;0.38;;;;;;;23.57;51.22;97399.41;15278229;19;20010;-77
2022/06/08 15:43:44;;;;;;;1.27;0.50;;;;;;;23.62;53.92;97401.34;15284010;19;20014;-76
2022/06/08 15:48:55;;;;;;;1.85;0.60;;;;;;;23.55;53.46;97401.59;15276340;19;20951;-77
2022/06/08 15:54:04;;;;;;;;;;;;;;;23.59;54.64;97390.88;15292515;19;20018;-77
2022/06/08 15:59:13;;;;;;;2.50;0.50;;;;;;;23.65;52.49;97384.28;15288680;19;20317;-77
2022/06/08 16:04:18;;;;;;;1.42;0.50;;;;;;;23.64;52.93;97383.47;15294349;19;20011;-77
2022/06/08 16:09:25;;;;;;;0.85;0.52;;;;;;;23.54;54.35;97391.69;15295284;19;20090;-78
2022/06/08 16:14:30;;;;;;;2.63;0.45;;;;;;;23.35;54.08;97385.88;15307856;19;20033;-78
2022/06/08 16:19:35;;;;;;;2.10;0.77;;;;;;;23.38;54.05;97386.16;15292138;19;20360;-77
2022/06/08 16:24:43;;;;;;;1.77;0.50;;;;;;;23.38;55.50;97390.84;15288022;19;20386;-77
2022/06/08 16:29:48;;;;;;;1.75;0.55;;;;;;;23.46;57.23;97392.25;15287074;19;20024;-77
2022/06/08 16:34:53;;;;;;;0.82;0.50;;;;;;;23.31;56.65;97385.59;15292013;19;20050;-77
2022/06/08 16:40:01;;;;;;;1.60;0.50;;;;;;;23.33;56.47;97383.41;15288015;19;20014;-77
2022/06/08 16:45:07;;;;;;;1.75;0.60;;;;;;;23.33;56.90;97388.91;15290395;19;20031;-77
2022/06/08 16:50:14;;;;;;;2.70;0.50;;;;;;;23.29;57.57;97378.69;15263984;19;20035;-77
2022/06/08 16:55:22;;;;;;;0.93;0.43;;;;;;;23.18;58.09;97386.88;15283797;19;20018;-78
2022/06/08 17:00:27;;;;;;;1.38;0.60;;;;;;;22.74;59.84;97392.72;15277414;19;20479;-77
2022/06/08 17:05:36;;;;;;;1.88;0.52;;;;;;;22.66;59.35;97385.81;15287869;19;20832;-77
2022/06/08 17:16:02;;;;;;;3.80;0.50;;;;;;;22.63;59.74;97391.84;15304804;19;20014;-79
2022/06/08 17:21:07;;;;;;;1.33;0.40;;;;;;;22.62;61.86;97391.00;15288533;19;20007;-79
2022/06/08 17:26:18;;;;;;;1.13;0.50;;;;;;;22.40;63.25;97385.59;15288799;19;20392;-77
2022/06/08 17:31:24;;;;;;;1.48;0.40;;;;;;;22.32;62.42;97394.31;15289915;19;20017;-77
2022/06/08 17:36:30;;;;;;;1.42;0.40;;;;;;;22.30;63.61;97402.00;15293107;19;20035;-77
2022/06/08 17:41:38;;;;;;;2.00;0.50;;;;;;;22.19;63.92;97401.09;15287403;19;20024;-76
2022/06/08 17:46:43;;;;;;;3.00;0.60;;;;;;;22.11;66.41;97409.81;15294042;19;20047;-77
2022/06/08 17:51:48;;;;;;;0.70;0.40;;;;;;;21.85;67.96;97404.91;15287485;19;20027;-77
2022/06/08 17:56:55;;;;;;;2.15;0.60;;;;;;;21.82;71.02;97404.59;15285888;19;20051;-77
2022/06/08 18:02:00;;;;;;;3.22;0.50;;;;;;;21.69;75.78;97405.88;15286594;19;20438;-78
2022/06/08 18:07:06;;;;;;;2.92;0.52;;;;;;;21.55;78.90;97403.50;15291054;19;20022;-77
2022/06/08 18:12:16;;;;;;;1.33;0.55;;;;;;;21.44;79.86;97412.69;15285618;19;20010;-78
2022/06/08 18:17:24;;;;;;;1.17;0.50;;;;;;;21.37;77.91;97414.78;15286755;19;20025;-79
2022/06/08 18:22:30;;;;;;;1.00;0.50;;;;;;;21.28;77.74;97416.31;15287785;19;20295;-77
2022/06/08 18:27:42;;;;;;;1.17;0.60;;;;;;;21.27;78.60;97420.16;15285294;19;20024;-77
2022/06/08 18:32:49;;;;;;;0.90;0.47;;;;;;;21.24;78.50;97422.31;15281509;19;20031;-76
2022/06/08 18:37:55;;;;;;;0.70;0.32;;;;;;;21.13;78.26;97422.44;15293812;19;20014;-77
2022/06/08 18:43:06;;;;;;;1.05;0.40;;;;;;;21.00;79.66;97419.00;15292593;19;20010;-76
2022/06/08 18:48:12;;;;;;;1.33;0.43;;;;;;;20.90;79.22;97422.44;15299512;19;20463;-79
2022/06/08 18:53:17;;;;;;;2.47;0.43;;;;;;;20.92;79.64;97424.94;15294117;19;20043;-77
2022/06/08 18:58:27;;;;;;;3.50;0.50;;;;;;;20.90;86.33;97425.16;15293069;19;20341;-78
2022/06/08 19:03:32;;;;;;;2.17;0.50;;;;;;;20.84;89.79;97430.81;15289705;19;20822;-78
2022/06/08 19:08:38;;;;;;;1.85;0.50;;;;;;;20.81;90.59;97428.59;15288366;19;20122;-77
2022/06/08 19:13:46;;;;;;;0.82;0.40;;;;;;;20.77;90.81;97429.09;15283039;19;20025;-76
2022/06/08 19:24:12;;;;;;;1.67;0.40;;;;;;;20.62;91.24;97432.44;15296764;19;20007;-76
2022/06/08 19:29:20;;;;;;;1.08;0.40;;;;;;;20.57;92.28;97443.28;15342197;19;20002;-75
2022/06/08 19:34:26;;;;;;;1.08;0.65;;;;;;;20.51;92.58;97447.03;15289127;19;20014;-74
2022/06/08 19:39:30;;;;;;;1.63;1.00;;;;;;;20.42;94.95;97448.50;15279210;19;20027;-76
2022/06/08 19:44:38;;;;;;;1.42;1.00;;;;;;;20.32;95.85;97450.00;15288435;19;20019;-76
2022/06/08 19:49:43;;;;;;;6.03;1.38;;;;;;;20.16;98.17;97451.66;15280449;19;20015;-76
2022/06/08 19:54:48;;;;;;;1.50;0.90;;;;;;;20.09;98.19;97452.88;15283733;19;20693;-76
2022/06/08 20:00:02;;;;;;;;;;;;;;;20.01;99.98;97460.44;15279215;19;20348;-76
2022/06/08 20:05:15;;;;;;;1.20;0.90;;;;;;;19.93;99.94;97465.47;15278825;19;19939;-77
2022/06/08 20:10:21;;;;;;;2.47;0.80;;;;;;;19.81;100.00;97470.97;15275828;19;20074;-77
2022/06/08 20:15:31;;;;;;;1.48;0.80;;;;;;;19.67;100.00;97476.72;15282562;19;20034;-76
2022/06/08 20:20:39;;;;;;;1.02;0.57;;;;;;;19.55;100.00;97478.66;15278224;19;20010;-74
2022/06/08 20:25:44;;;;;;;2.00;0.77;;;;;;;19.45;100.00;97487.47;15285477;19;20014;-76
2022/06/08 20:30:53;;;;;;;1.20;0.80;;;;;;;19.38;100.00;97484.06;15285730;19;20369;-78
2022/06/08 20:35:58;;;;;;;2.90;0.50;;;;;;;19.29;100.00;97480.88;15288694;19;20019;-77
2022/06/08 20:41:03;;;;;;;1.27;0.60;;;;;;;19.19;100.00;97480.66;15287842;19;20643;-78
2022/06/08 20:46:12;;;;;;;1.05;0.60;;;;;;;18.89;100.00;97484.31;15293504;19;20046;-76
2022/06/08 20:51:18;;;;;;;3.45;0.70;;;;;;;18.51;100.00;97486.47;15291987;19;20015;-78
2022/06/08 20:56:23;;;;;;;2.00;0.60;;;;;;;17.99;100.00;97506.13;15295328;19;20081;-76
2022/06/08 21:01:31;;;;;;;4.15;0.80;;;;;;;17.73;100.00;97508.13;15290472;19;20021;-76
2022/06/08 21:06:36;;;;;;;1.90;0.57;;;;;;;17.60;100.00;97513.75;15291676;19;20039;-76
2022/06/08 21:11:42;;;;;;;2.70;0.80;;;;;;;17.47;100.00;97536.53;15285398;19;20015;-77
2022/06/08 21:16:52;;;;;;;2.60;0.82;;;;;;;17.31;100.00;97532.53;15289606;19;20015;-76
2022/06/08 21:21:57;;;;;;;2.75;0.88;;;;;;;17.14;100.00;97537.75;15290476;19;20035;-75
2022/06/08 21:27:02;;;;;;;2.75;0.70;;;;;;;17.04;100.00;97530.94;15293808;19;20033;-80
2022/06/08 21:32:10;;;;;;;1.75;0.70;;;;;;;16.92;100.00;97544.41;15291704;19;20011;-76
2022/06/08 21:37:15;;;;;;;2.13;0.60;;;;;;;16.85;100.00;97540.09;15291609;19;20023;-74
2022/06/08 21:42:20;;;;;;;1.98;0.70;;;;;;;16.74;100.00;97547.09;15280998;19;20074;-76
2022/06/08 21:47:27;;;;;;;2.20;0.70;;;;;;;16.67;100.00;97546.31;15287234;19;20031;-75
2022/06/08 21:52:32;;;;;;;2.22;0.80;;;;;;;16.62;100.00;97539.66;15289634;19;20433;-76
2022/06/08 21:57:38;;;;;;;2.95;0.80;;;;;;;16.54;100.00;97545.38;15289948;19;20018;-75
2022/06/08 22:02:47;;;;;;;1.40;0.70;;;;;;;16.47;100.00;97550.84;15296377;19;20007;-74
2022/06/08 22:07:55;;;;;;;4.50;0.60;;;;;;;16.40;100.00;97554.69;15303381;19;20010;-75
2022/06/08 22:13:27;;;;;;;3.08;0.90;;;;;;;16.29;100.00;97548.88;15287042;19;20078;-75
2022/06/08 22:18:35;;;;;;;1.35;0.63;;;;;;;16.19;100.00;97559.41;15278018;19;20101;-75
2022/06/08 22:23:43;;;;;;;2.15;0.73;;;;;;;16.14;100.00;97562.78;15285761;19;20018;-75
2022/06/08 22:28:48;;;;;;;1.48;0.60;;;;;;;16.13;100.00;97568.47;15290050;19;20468;-75
2022/06/08 22:33:57;;;;;;;2.05;0.65;;;;;;;16.04;100.00;97567.88;15292893;19;20054;-75
2022/06/08 22:39:02;;;;;;;2.50;0.82;;;;;;;15.93;100.00;97577.56;15292344;19;20018;-76
2022/06/08 22:44:07;;;;;;;1.55;0.70;;;;;;;15.84;100.00;97571.53;15299691;19;20003;-75
2022/06/08 22:49:14;;;;;;;1.08;0.57;;;;;;;15.80;100.00;97572.97;15292278;19;20135;-75
2022/06/08 22:54:19;;;;;;;2.15;0.80;;;;;;;15.69;100.00;97576.38;15294992;19;20046;-76
2022/06/08 22:59:24;;;;;;;1.60;0.70;;;;;;;15.66;100.00;97571.34;15289901;19;20014;-74
2022/06/08 23:04:32;;;;;;;1.45;0.60;;;;;;;15.60;100.00;97559.47;15294109;19;20010;-74
2022/06/08 23:09:37;;;;;;;1.95;0.65;;;;;;;15.54;100.00;97558.44;15291454;19;20512;-76
2022/06/08 23:14:44;;;;;;;1.52;0.70;;;;;;;15.53;100.00;97558.69;15328834;19;20015;-76
2022/06/08 23:25:09;;;;;;;1.95;0.70;;;;;;;15.50;100.00;97573.53;15276831;19;20026;-75
2022/06/08 23:30:15;;;;;;;2.33;0.68;;;;;;;15.50;100.00;97576.25;15278968;19;20014;-75
2022/06/08 23:35:23;;;;;;;1.45;0.80;;;;;;;15.54;100.00;97582.06;15280577;19;20028;-74
2022/06/08 23:40:28;;;;;;;2.00;0.80;;;;;;;15.54;100.00;97582.88;15276259;19;20135;-75
2022/06/08 23:45:35;;;;;;;2.03;0.50;;;;;;;15.46;100.00;97593.16;15281537;19;20085;-75
2022/06/08 23:56:00;;;;;;;1.73;0.50;;;;;;;15.26;100.00;97604.88;15282035;19;20029;-76
